Time;durP1;ratioP1;P1;durP2;ratioP2;P2;SDS_P1;SDS_P2;PMS_P1;PMS_P2;Temp;Humidity;BMP_temperature;BMP_pressure;BME280_temperature;BME280_humidity;BME280_pressure;Samples;Min_cycle;Max_cycle;Signal;HPM_P1;HPM_P2
2022/11/05 00:09:32;;;;;;;7.25;1.50;;;;;;;9.38;80.67;101087.44;5032359;28;20037;-68
2022/11/05 00:17:34;;;;;;;1.58;0.70;;;;;;;9.47;80.20;101081.44;5032316;28;20167;-67
2022/11/05 00:20:00;;;;;;;4.53;1.77;;;;;;;9.44;79.74;101077.16;5032347;28;20505;-68
2022/11/05 00:25:15;;;;;;;7.47;1.73;;;;;;;9.39;79.75;101065.00;5031975;28;20044;-64
2022/11/05 00:27:43;;;;;;;5.38;1.40;;;;;;;9.40;80.06;101064.03;5031840;28;20038;-67
2022/11/05 00:30:09;;;;;;;5.82;1.60;;;;;;;9.41;80.44;101071.16;5031740;28;20106;-66
2022/11/05 00:32:35;;;;;;;5.50;2.28;;;;;;;9.36;80.31;101063.41;5030621;28;20120;-68
2022/11/05 00:35:01;;;;;;;5.93;2.10;;;;;;;9.35;81.20;101072.41;5031460;28;20112;-65
2022/11/05 00:37:27;;;;;;;6.47;2.20;;;;;;;9.43;80.28;101069.22;5063984;28;20029;-65
2022/11/05 00:39:52;;;;;;;5.53;1.70;;;;;;;9.40;80.88;101064.03;5032023;28;20034;-67
2022/11/05 00:45:03;;;;;;;7.45;2.88;;;;;;;9.35;81.24;101075.97;5031507;28;20040;-67
2022/11/05 00:50:15;;;;;;;6.88;2.22;;;;;;;9.33;80.88;101071.66;5031616;28;20045;-66
2022/11/05 00:52:58;;;;;;;3.97;2.05;;;;;;;9.40;80.38;101082.81;5031512;28;20045;-67
2022/11/05 00:55:36;;;;;;;5.18;1.83;;;;;;;9.41;79.97;101071.16;5031693;28;20550;-67
2022/11/05 00:58:08;;;;;;;5.18;2.20;;;;;;;9.40;79.56;101069.41;5035790;28;20025;-66
2022/11/05 01:00:35;;;;;;;7.22;2.47;;;;;;;9.45;79.24;101060.09;5033648;28;20022;-67
2022/11/05 01:03:06;;;;;;;5.43;2.17;;;;;;;9.50;79.55;101054.38;5035017;28;20112;-67
2022/11/05 01:05:37;;;;;;;5.30;2.67;;;;;;;9.55;79.16;101071.00;5035121;28;20026;-68
2022/11/05 01:08:02;;;;;;;8.73;2.60;;;;;;;9.60;79.20;101066.19;5035423;28;20033;-66
2022/11/05 01:10:28;;;;;;;6.95;2.60;;;;;;;9.58;80.09;101063.63;5035637;28;20370;-66
2022/11/05 01:12:54;;;;;;;6.38;3.13;;;;;;;9.61;80.08;101058.03;5034164;28;20068;-67
2022/11/05 01:15:21;;;;;;;8.52;3.78;;;;;;;9.62;80.19;101058.88;5033956;28;20448;-67
2022/11/05 01:17:47;;;;;;;11.45;4.18;;;;;;;9.56;80.84;101067.34;5034133;28;20021;-65
2022/11/05 01:20:12;;;;;;;4.70;3.42;;;;;;;9.55;81.15;101065.63;5035134;28;20040;-67
2022/11/05 01:22:38;;;;;;;11.55;4.13;;;;;;;9.55;82.03;101060.28;5034912;28;20120;-66
2022/11/05 01:25:06;;;;;;;6.97;4.05;;;;;;;9.52;81.70;101055.97;5035400;28;20065;-66
2022/11/05 01:27:31;;;;;;;5.63;3.40;;;;;;;9.44;82.81;101060.19;5035497;28;20393;-66
2022/11/05 01:29:57;;;;;;;9.88;4.22;;;;;;;9.50;82.73;101062.44;5035358;28;20021;-67
2022/11/05 01:32:22;;;;;;;6.30;2.80;;;;;;;9.45;82.78;101048.50;5035110;28;20021;-67
2022/11/05 01:34:48;;;;;;;6.40;3.08;;;;;;;9.37;83.54;101053.53;5035021;28;20121;-65
2022/11/05 01:37:14;;;;;;;7.30;3.08;;;;;;;9.33;83.86;101064.47;5034987;28;20029;-65
2022/11/05 01:39:39;;;;;;;5.50;3.10;;;;;;;9.40;83.97;101058.66;5034966;28;20488;-67
2022/11/05 01:42:14;;;;;;;5.22;2.92;;;;;;;9.37;83.61;101042.78;5035098;28;20039;-66
2022/11/05 01:44:49;;;;;;;;;;;;;;;9.39;83.05;101051.59;5034087;28;20029;-65
2022/11/05 01:47:43;;;;;;;6.85;2.83;;;;;;;9.33;82.61;101045.69;5034453;28;19916;-66
2022/11/05 01:50:33;;;;;;;6.47;2.80;;;;;;;9.34;83.12;101054.59;5033542;28;20025;-68
2022/11/05 01:53:43;;;;;;;7.40;2.90;;;;;;;9.38;82.86;101055.25;5066661;28;20029;-66
2022/11/05 01:56:17;;;;;;;5.80;2.58;;;;;;;9.37;82.55;101042.78;5023939;28;20055;-67
2022/11/05 01:58:47;;;;;;;5.63;3.08;;;;;;;9.37;82.00;101032.91;5034759;28;20072;-66
2022/11/05 02:01:13;;;;;;;10.30;3.28;;;;;;;9.39;81.70;101040.84;5034554;28;20477;-67
2022/11/05 02:03:40;;;;;;;9.02;2.90;;;;;;;9.39;82.27;101035.47;5033300;28;20513;-67
2022/11/05 02:06:08;;;;;;;8.57;3.05;;;;;;;9.44;81.95;101039.56;5032815;28;20122;-67
2022/11/05 02:08:42;;;;;;;8.52;3.28;;;;;;;9.41;82.28;101022.84;5034620;28;20029;-66
2022/11/05 02:11:08;;;;;;;5.88;2.13;;;;;;;9.40;82.31;101026.47;5034503;28;20300;-67
2022/11/05 02:13:35;;;;;;;6.93;3.22;;;;;;;9.41;82.52;101017.47;5034987;28;20100;-66
2022/11/05 02:16:11;;;;;;;10.13;4.05;;;;;;;9.39;82.77;101019.38;5034551;28;20025;-66
2022/11/05 02:18:45;;;;;;;8.75;2.88;;;;;;;9.35;82.92;101016.91;5034254;28;20091;-66
2022/11/05 02:21:40;;;;;;;5.50;2.00;;;;;;;9.42;82.16;101035.28;5033948;28;20017;-68
2022/11/05 02:24:20;;;;;;;8.23;4.27;;;;;;;9.37;82.48;101022.19;5015802;28;20128;-67
2022/11/05 02:27:11;;;;;;;7.00;3.08;;;;;;;9.38;82.96;101023.03;5034055;28;20642;-65
2022/11/05 02:29:55;;;;;;;4.75;2.65;;;;;;;9.33;82.28;101018.84;5034449;28;20057;-68
2022/11/05 02:32:36;;;;;;;7.18;2.40;;;;;;;9.35;82.26;101019.59;5034402;28;20096;-67
2022/11/05 02:35:26;;;;;;;5.90;2.53;;;;;;;9.34;82.91;101017.88;5032519;28;20083;-68
2022/11/05 02:38:01;;;;;;;5.18;2.72;;;;;;;9.34;82.20;101020.56;5032996;28;20042;-68
2022/11/05 02:40:37;;;;;;;7.28;3.00;;;;;;;9.33;82.69;101026.06;5034157;28;20064;-66
2022/11/05 02:43:14;;;;;;;9.35;3.35;;;;;;;9.36;82.13;101023.16;5033772;28;20029;-68
2022/11/05 02:45:50;;;;;;;7.45;2.65;;;;;;;9.26;82.95;101020.28;5032464;28;20581;-67
2022/11/05 02:48:37;;;;;;;4.13;2.78;;;;;;;9.25;83.26;101013.19;5034001;28;20068;-66
2022/11/05 02:51:18;;;;;;;4.30;2.45;;;;;;;9.31;83.23;101018.13;5032318;28;20393;-64
2022/11/05 02:53:56;;;;;;;5.43;2.50;;;;;;;9.38;82.56;101023.03;5033729;28;20108;-66
2022/11/05 02:56:27;;;;;;;6.05;2.83;;;;;;;9.30;82.52;101021.75;5033481;28;20033;-67
2022/11/05 02:58:53;;;;;;;6.78;3.15;;;;;;;9.26;82.49;101028.31;5033957;28;20425;-66
2022/11/05 03:01:19;;;;;;;4.53;2.35;;;;;;;9.24;83.07;101024.03;5032304;28;20176;-66
2022/11/05 03:03:48;;;;;;;6.57;3.42;;;;;;;9.19;82.88;101016.28;5033823;28;20049;-66
2022/11/05 03:06:23;;;;;;;7.22;3.25;;;;;;;9.16;83.05;101018.34;5032315;28;20029;-65
2022/11/05 03:09:10;;;;;;;5.95;2.92;;;;;;;9.18;82.90;101022.63;5032252;28;20086;-68
2022/11/05 03:12:22;;;;;;;8.68;3.10;;;;;;;9.23;82.82;101025.81;5033831;28;20474;-66
2022/11/05 03:15:19;;;;;;;3.83;2.42;;;;;;;9.20;83.26;101031.41;5023246;28;20045;-66
2022/11/05 03:18:10;;;;;;;6.40;2.72;;;;;;;9.24;82.81;101021.34;5033052;28;20087;-67
2022/11/05 03:20:38;;;;;;;10.07;4.05;;;;;;;9.23;82.82;101025.81;5032027;28;20073;-67
2022/11/05 03:23:35;;;;;;;5.40;3.20;;;;;;;9.20;82.62;101026.06;5033294;28;20045;-65
2022/11/05 03:26:07;;;;;;;7.15;3.38;;;;;;;9.28;82.83;101045.16;5032069;28;20393;-67
2022/11/05 03:28:36;;;;;;;7.53;3.08;;;;;;;9.29;82.50;101025.41;5033221;28;20367;-66
2022/11/05 03:31:04;;;;;;;7.13;3.15;;;;;;;9.37;81.97;101027.53;5031436;28;20124;-67
2022/11/05 03:33:33;;;;;;;9.63;2.80;;;;;;;9.42;81.66;101027.25;5033043;28;20390;-66
2022/11/05 03:36:07;;;;;;;5.95;3.40;;;;;;;9.41;81.87;101030.91;5031912;28;20025;-66
2022/11/05 03:38:39;;;;;;;8.00;2.67;;;;;;;9.40;82.16;101042.56;5033043;28;20025;-67
2022/11/05 03:41:08;;;;;;;6.60;2.90;;;;;;;9.41;82.19;101047.84;5031451;28;20029;-67
2022/11/05 03:43:38;;;;;;;8.68;2.55;;;;;;;9.44;81.63;101039.56;5031640;28;20539;-66
2022/11/05 03:46:09;;;;;;;5.70;2.88;;;;;;;9.39;82.05;101048.91;5031470;28;20059;-65
2022/11/05 03:48:42;;;;;;;6.03;3.10;;;;;;;9.44;81.86;101042.25;5031089;28;20030;-65
2022/11/05 03:51:15;;;;;;;4.57;2.85;;;;;;;9.32;81.91;101049.34;5032800;28;20037;-65
2022/11/05 03:53:48;;;;;;;5.00;2.90;;;;;;;9.38;81.86;101045.34;5032597;28;20478;-67
2022/11/05 03:56:25;;;;;;;9.63;3.50;;;;;;;9.47;81.47;101044.72;5032743;28;20026;-65
2022/11/05 03:58:52;;;;;;;6.45;2.80;;;;;;;9.48;81.48;101041.06;5032884;28;20021;-66
2022/11/05 04:01:17;;;;;;;3.97;1.98;;;;;;;9.47;81.01;101054.59;5031442;28;20032;-67
2022/11/05 04:03:43;;;;;;;5.20;2.70;;;;;;;9.48;80.45;101041.06;5032533;28;20112;-65
2022/11/05 04:14:21;;;;;;;5.45;2.60;;;;;;;9.49;79.88;101049.97;5032425;28;20556;-67
2022/11/05 04:17:05;;;;;;;4.57;2.05;;;;;;;9.52;79.46;101039.03;5031339;28;20067;-66
2022/11/05 04:25:09;;;;;;;4.03;2.30;;;;;;;9.52;79.36;101036.34;5032189;28;20486;-66
2022/11/05 04:27:35;;;;;;;6.35;2.03;;;;;;;9.51;79.28;101035.47;5032132;28;20962;-67
2022/11/05 04:30:20;;;;;;;5.03;2.33;;;;;;;9.52;79.34;101036.34;5032330;28;20029;-66
2022/11/05 04:32:57;;;;;;;7.85;2.78;;;;;;;9.53;79.47;101030.00;5032298;28;20071;-66
2022/11/05 04:35:24;;;;;;;6.88;2.50;;;;;;;9.51;79.39;101042.69;5032312;28;20033;-67
2022/11/05 04:37:50;;;;;;;5.25;2.10;;;;;;;9.51;79.16;101027.44;5031987;28;20108;-65
2022/11/05 04:40:15;;;;;;;5.18;2.22;;;;;;;9.51;80.10;101029.25;5030791;28;20124;-65
2022/11/05 04:42:41;;;;;;;4.07;2.00;;;;;;;9.51;79.88;101026.56;5032317;28;20133;-64
2022/11/05 04:45:07;;;;;;;6.93;3.03;;;;;;;9.47;79.86;101022.41;5032366;28;20462;-65
2022/11/05 04:47:32;;;;;;;3.95;2.20;;;;;;;9.41;80.54;101025.53;5031877;28;20037;-67
2022/11/05 04:49:58;;;;;;;5.93;2.20;;;;;;;9.45;80.54;101018.97;5031882;28;20033;-67
2022/11/05 04:52:23;;;;;;;6.20;2.10;;;;;;;9.43;80.17;101021.75;5032211;28;20036;-65
2022/11/05 04:54:49;;;;;;;5.18;2.50;;;;;;;9.44;80.02;101033.34;5031881;28;20033;-66
2022/11/05 04:57:14;;;;;;;6.97;2.92;;;;;;;9.42;80.05;101024.56;5031943;28;20409;-64
2022/11/05 04:59:40;;;;;;;4.60;2.45;;;;;;;9.43;80.14;101010.16;5032046;28;20529;-66
2022/11/05 05:02:06;;;;;;;7.05;2.92;;;;;;;9.41;80.46;101017.47;5032389;28;20030;-67
2022/11/05 05:04:31;;;;;;;3.85;2.40;;;;;;;9.43;80.25;101012.84;5030758;28;20021;-66
2022/11/05 05:06:57;;;;;;;3.25;2.08;;;;;;;9.44;80.66;101011.88;5031550;28;20030;-67
2022/11/05 05:09:23;;;;;;;5.28;2.30;;;;;;;9.43;80.52;101015.53;5030387;28;20117;-65
2022/11/05 05:11:48;;;;;;;8.15;2.38;;;;;;;9.42;80.29;101013.81;5030572;28;20037;-66
2022/11/05 05:14:14;;;;;;;4.43;2.10;;;;;;;9.47;80.28;101011.66;5030889;28;20029;-65
2022/11/05 05:16:39;;;;;;;8.65;2.40;;;;;;;9.42;80.28;101013.81;5030591;28;20025;-66
2022/11/05 05:19:05;;;;;;;5.40;2.47;;;;;;;9.40;80.20;101011.22;5031587;28;20151;-65
2022/11/05 05:21:40;;;;;;;6.00;2.53;;;;;;;9.42;80.15;101009.31;5031789;28;20465;-66
2022/11/05 05:24:07;;;;;;;;;;;;;;;9.41;80.83;101012.09;5030769;28;20029;-68
2022/11/05 05:26:37;;;;;;;3.38;2.20;;;;;;;9.38;80.79;101009.63;5031966;28;19913;-66
2022/11/05 05:29:03;;;;;;;5.55;2.70;;;;;;;9.43;80.47;101015.53;5031966;28;20063;-67
2022/11/05 05:31:29;;;;;;;6.22;3.13;;;;;;;9.32;81.11;101001.03;5031694;28;20033;-64
2022/11/05 05:33:55;;;;;;;5.47;3.10;;;;;;;9.37;80.41;100999.84;5030312;28;20025;-64
2022/11/05 05:36:22;;;;;;;5.35;2.45;;;;;;;9.41;79.89;101004.06;5031586;28;20034;-67
2022/11/05 05:38:48;;;;;;;4.53;1.80;;;;;;;9.31;80.86;101001.16;5030483;28;20068;-68
2022/11/05 05:41:14;;;;;;;7.55;2.63;;;;;;;9.37;80.88;101005.22;5032487;28;20033;-66
2022/11/05 05:43:39;;;;;;;4.32;2.40;;;;;;;9.34;80.71;100999.09;5035439;28;20082;-66
2022/11/05 05:46:08;;;;;;;8.05;2.47;;;;;;;9.35;80.28;100997.28;5067198;28;20033;-67
2022/11/05 05:48:34;;;;;;;6.28;2.40;;;;;;;9.39;80.11;101005.97;5033821;28;20057;-65
2022/11/05 05:51:08;;;;;;;9.57;3.60;;;;;;;9.33;79.93;101002.75;5034711;28;20571;-67
2022/11/05 05:53:34;;;;;;;8.23;2.80;;;;;;;9.41;79.94;100996.00;5034869;28;20116;-66
2022/11/05 05:55:59;;;;;;;5.78;2.65;;;;;;;9.26;79.88;101004.19;5033724;28;20125;-66
2022/11/05 05:58:32;;;;;;;5.10;2.30;;;;;;;9.33;79.41;101007.25;5034941;28;20029;-64
2022/11/05 06:01:06;;;;;;;6.90;2.17;;;;;;;9.38;79.62;101004.25;5034728;28;20112;-67
2022/11/05 06:03:33;;;;;;;5.30;2.50;;;;;;;9.33;79.54;101004.59;5034525;28;20123;-68
2022/11/05 06:06:04;;;;;;;6.57;2.25;;;;;;;9.25;79.29;101007.81;5034969;28;20383;-66
2022/11/05 06:08:30;;;;;;;6.45;2.55;;;;;;;9.27;79.51;101000.53;5033361;28;20037;-65
2022/11/05 06:10:56;;;;;;;5.28;1.77;;;;;;;9.34;79.24;100988.38;5034800;28;20033;-66
2022/11/05 06:13:21;;;;;;;5.60;2.42;;;;;;;9.33;78.92;100993.84;5034804;28;20084;-67
2022/11/05 06:15:47;;;;;;;5.45;2.83;;;;;;;9.31;79.06;100998.47;5033363;28;20488;-67
2022/11/05 06:18:13;;;;;;;7.25;2.42;;;;;;;9.24;79.37;100998.06;5033334;28;20017;-63
2022/11/05 06:20:38;;;;;;;5.75;2.45;;;;;;;9.25;78.78;101002.47;5034411;28;20029;-65
2022/11/05 06:23:04;;;;;;;5.45;2.65;;;;;;;9.23;78.85;101007.03;5034267;28;20053;-67
2022/11/05 06:25:29;;;;;;;4.93;2.63;;;;;;;9.24;78.70;101007.94;5034511;28;20493;-68
2022/11/05 06:27:55;;;;;;;7.38;3.10;;;;;;;9.25;77.88;101002.47;5034468;28;20034;-66
2022/11/05 06:30:22;;;;;;;4.82;2.80;;;;;;;9.21;78.15;101003.63;5034384;28;20541;-65
2022/11/05 06:32:48;;;;;;;6.05;3.58;;;;;;;9.20;77.72;101009.09;5034356;28;20037;-66
2022/11/05 06:35:14;;;;;;;5.30;2.30;;;;;;;9.16;78.28;100997.72;5034036;28;20029;-66
2022/11/05 06:37:39;;;;;;;6.53;3.00;;;;;;;9.21;78.01;100998.25;5034075;28;20117;-65
2022/11/05 06:40:06;;;;;;;9.38;4.13;;;;;;;9.25;77.82;100997.09;5032987;28;20516;-67
2022/11/05 06:42:32;;;;;;;4.93;2.47;;;;;;;9.25;77.49;100996.25;5034188;28;20029;-67
2022/11/05 06:44:57;;;;;;;9.68;2.75;;;;;;;9.34;77.06;100998.25;5033900;28;20397;-67
2022/11/05 06:47:23;;;;;;;5.15;2.72;;;;;;;9.29;76.72;100993.22;5033781;28;20481;-65
2022/11/05 06:49:49;;;;;;;5.75;2.85;;;;;;;9.29;76.86;100998.59;5034116;28;20116;-64
2022/11/05 06:52:15;;;;;;;5.85;2.70;;;;;;;9.21;76.75;100995.56;5033457;28;20036;-66
2022/11/05 06:54:42;;;;;;;5.60;2.80;;;;;;;9.23;77.28;100988.25;5032107;28;20029;-66
2022/11/05 06:57:11;;;;;;;4.40;2.63;;;;;;;9.30;76.85;101004.81;5065764;28;20029;-67
2022/11/05 06:59:38;;;;;;;5.00;2.00;;;;;;;9.29;76.34;100998.59;5033758;28;20140;-66
2022/11/05 07:02:04;;;;;;;5.15;2.65;;;;;;;9.33;76.38;101000.06;5033725;28;20026;-65
2022/11/05 07:04:30;;;;;;;6.18;2.35;;;;;;;9.32;76.33;101003.72;5032387;28;20092;-66
2022/11/05 07:07:00;;;;;;;2.83;1.50;;;;;;;9.34;76.08;101007.16;5033595;28;20513;-66
2022/11/05 07:09:27;;;;;;;3.75;2.28;;;;;;;9.33;75.70;101001.91;5032073;28;20025;-65
2022/11/05 07:11:53;;;;;;;3.33;2.30;;;;;;;9.29;75.63;100998.59;5032213;28;20030;-66
2022/11/05 07:14:18;;;;;;;5.10;2.45;;;;;;;9.33;75.65;101005.44;5033340;28;20025;-65
2022/11/05 07:16:44;;;;;;;6.38;2.55;;;;;;;9.34;75.36;101007.16;5032337;28;20026;-66
2022/11/05 07:19:10;;;;;;;5.25;2.55;;;;;;;9.36;74.84;101015.09;5033297;28;20048;-65
2022/11/05 07:21:35;;;;;;;2.38;1.80;;;;;;;9.34;74.68;101011.66;5033511;28;20049;-66
2022/11/05 07:24:01;;;;;;;5.20;2.67;;;;;;;9.35;74.88;100997.28;5033189;28;20025;-65
2022/11/05 07:26:26;;;;;;;5.55;2.85;;;;;;;9.37;74.56;101006.06;5033720;28;20474;-65
2022/11/05 07:28:54;;;;;;;7.03;2.85;;;;;;;9.28;75.20;101007.59;5032905;28;20037;-64
2022/11/05 07:31:19;;;;;;;5.03;2.13;;;;;;;9.38;75.08;101012.28;5031985;28;20525;-65
2022/11/05 07:33:45;;;;;;;6.53;2.30;;;;;;;9.32;75.04;101003.72;5033315;28;20072;-66
2022/11/05 07:36:10;;;;;;;5.55;1.95;;;;;;;9.33;75.84;101013.50;5033059;28;20033;-68
2022/11/05 07:38:36;;;;;;;3.80;1.73;;;;;;;9.37;75.55;101002.53;5032968;28;20501;-65
2022/11/05 07:41:01;;;;;;;3.97;2.42;;;;;;;9.34;75.05;101012.53;5032554;28;20113;-66
2022/11/05 07:43:27;;;;;;;4.22;2.08;;;;;;;9.32;74.89;101001.03;5032768;28;20470;-66
2022/11/05 07:45:52;;;;;;;3.00;1.50;;;;;;;9.35;74.78;101000.81;5033012;28;20183;-67
2022/11/05 07:48:19;;;;;;;4.43;2.50;;;;;;;9.39;74.52;101000.59;5033152;28;20037;-67
2022/11/05 07:50:44;;;;;;;6.80;1.98;;;;;;;9.33;74.63;101000.06;5031535;28;20032;-68
2022/11/05 07:53:13;;;;;;;3.85;2.10;;;;;;;9.32;74.75;100998.38;5032734;28;20041;-66
2022/11/05 07:55:42;;;;;;;5.07;2.38;;;;;;;9.33;74.43;101004.59;5064770;28;20517;-67
2022/11/05 07:58:09;;;;;;;4.07;1.95;;;;;;;9.38;74.12;100997.06;5032544;28;20025;-67
2022/11/05 08:00:35;;;;;;;4.13;1.70;;;;;;;9.39;73.72;100998.78;5064582;28;20120;-66
2022/11/05 08:03:04;;;;;;;2.88;1.55;;;;;;;9.38;73.82;100997.06;5032368;28;20188;-65
2022/11/05 08:05:33;;;;;;;3.80;1.98;;;;;;;9.37;73.65;100995.34;5030995;28;20048;-66
2022/11/05 08:07:59;;;;;;;3.92;1.58;;;;;;;9.38;73.18;101004.25;5032470;28;20025;-65
2022/11/05 08:10:25;;;;;;;3.53;1.88;;;;;;;9.35;73.25;100992.78;5030884;28;20114;-65
2022/11/05 08:12:52;;;;;;;4.47;1.73;;;;;;;9.38;73.28;100980.94;5032304;28;20498;-67
2022/11/05 08:15:18;;;;;;;3.67;1.40;;;;;;;9.39;73.30;100981.81;5032230;28;20053;-66
2022/11/05 08:17:44;;;;;;;2.47;1.40;;;;;;;9.34;73.61;100991.06;5032311;28;20115;-67
2022/11/05 08:20:11;;;;;;;3.88;2.00;;;;;;;9.33;73.78;100989.34;5032258;28;20041;-68
2022/11/05 08:22:43;;;;;;;2.95;1.70;;;;;;;9.37;73.69;100981.06;5032083;28;20445;-66
2022/11/05 08:25:13;;;;;;;4.47;1.60;;;;;;;9.35;73.78;100982.03;5031723;28;20095;-66
2022/11/05 08:27:39;;;;;;;2.80;1.70;;;;;;;9.32;74.32;100981.41;5032213;28;20029;-65
2022/11/05 08:30:06;;;;;;;4.13;1.98;;;;;;;9.34;74.89;100974.97;5030631;28;20033;-65
2022/11/05 08:32:32;;;;;;;4.88;1.90;;;;;;;9.38;74.41;100974.72;5030753;28;20052;-66
2022/11/05 08:34:58;;;;;;;4.45;1.42;;;;;;;9.38;74.48;100966.69;5030359;28;20030;-66
2022/11/05 08:37:23;;;;;;;4.32;1.70;;;;;;;9.39;75.09;100971.06;5063724;28;20030;-67
2022/11/05 08:39:49;;;;;;;2.78;1.20;;;;;;;9.37;74.99;100979.25;5030378;28;20129;-68
2022/11/05 08:42:15;;;;;;;4.40;1.83;;;;;;;9.38;75.65;100964.84;5030504;28;20473;-65
2022/11/05 08:44:40;;;;;;;4.18;2.22;;;;;;;9.38;75.61;100954.13;5030751;28;20042;-65
2022/11/05 08:47:06;;;;;;;3.50;2.08;;;;;;;9.40;75.56;100962.06;5031609;28;20034;-67
2022/11/05 08:49:31;;;;;;;5.15;1.98;;;;;;;9.40;75.62;100951.31;5032154;28;20064;-65
2022/11/05 08:51:57;;;;;;;4.65;2.25;;;;;;;9.37;75.79;100951.56;5030678;28;20053;-67
2022/11/05 08:54:22;;;;;;;4.10;2.13;;;;;;;9.25;75.94;100943.44;5031728;28;20049;-65
2022/11/05 08:56:48;;;;;;;6.82;2.55;;;;;;;9.33;76.23;100938.38;5031887;28;20037;-66
2022/11/05 08:59:14;;;;;;;3.58;1.70;;;;;;;9.39;76.19;100933.50;5063836;28;20033;-65
2022/11/05 09:01:40;;;;;;;3.95;1.77;;;;;;;9.37;76.57;100930.09;5030537;28;20053;-66
2022/11/05 09:04:06;;;;;;;4.00;1.75;;;;;;;9.42;76.83;100938.69;5031644;28;20048;-65
2022/11/05 09:06:32;;;;;;;7.70;2.38;;;;;;;9.41;77.68;100943.19;5031397;28;20030;-64
2022/11/05 09:08:58;;;;;;;5.75;2.15;;;;;;;9.40;77.40;100940.59;5031244;28;20478;-66
2022/11/05 09:11:24;;;;;;;6.35;2.30;;;;;;;9.36;78.06;100934.59;5029918;28;20036;-65
2022/11/05 09:13:49;;;;;;;4.15;2.20;;;;;;;9.33;77.74;100935.69;5031717;28;20049;-66
2022/11/05 09:16:21;;;;;;;3.45;1.73;;;;;;;9.35;78.38;100928.38;5032827;28;20501;-66
2022/11/05 09:18:48;;;;;;;4.57;1.52;;;;;;;9.33;78.53;100929.44;5035377;28;20385;-66
2022/11/05 09:21:14;;;;;;;3.58;1.50;;;;;;;9.29;78.82;100931.50;5033497;28;20033;-67
2022/11/05 09:23:40;;;;;;;6.22;2.50;;;;;;;9.24;78.54;100922.94;5035261;28;20046;-66
2022/11/05 09:26:06;;;;;;;5.47;2.40;;;;;;;9.22;78.92;100927.53;5035491;28;20029;-66
2022/11/05 09:28:32;;;;;;;6.93;2.72;;;;;;;9.22;78.72;100930.22;5035191;28;20034;-67
2022/11/05 09:30:57;;;;;;;3.15;1.23;;;;;;;9.22;79.28;100953.50;5033689;28;20025;-67
2022/11/05 09:33:24;;;;;;;4.20;1.48;;;;;;;9.22;79.32;100921.31;5035186;28;20072;-67
2022/11/05 09:35:52;;;;;;;5.40;2.35;;;;;;;9.22;79.29;100922.16;5035108;28;20040;-66
2022/11/05 09:38:18;;;;;;;4.10;2.88;;;;;;;9.20;80.09;100929.47;5035052;28;20382;-64
2022/11/05 09:41:02;;;;;;;5.53;2.92;;;;;;;9.22;79.87;100922.16;5035170;28;20034;-68
2022/11/05 09:43:52;;;;;;;8.73;2.80;;;;;;;9.21;80.69;100923.13;5033793;28;20040;-66
2022/11/05 09:46:23;;;;;;;6.18;3.03;;;;;;;9.14;80.84;100924.56;5034534;28;20134;-65
2022/11/05 09:48:52;;;;;;;8.50;3.30;;;;;;;9.14;81.83;100923.69;5035142;28;20029;-67
2022/11/05 09:51:19;;;;;;;7.03;2.95;;;;;;;8.89;82.92;100927.25;5034933;28;20021;-64
2022/11/05 09:53:45;;;;;;;7.55;3.58;;;;;;;8.83;84.42;100925.00;5034400;28;20155;-63
2022/11/05 09:56:29;;;;;;;10.85;4.55;;;;;;;8.59;86.97;100907.00;5033064;28;20103;-64
2022/11/05 09:59:01;;;;;;;11.13;5.40;;;;;;;8.49;88.24;100924.66;5032737;28;20033;-63
2022/11/05 10:01:34;;;;;;;6.70;4.28;;;;;;;8.60;88.81;100916.75;5033071;28;20128;-63
2022/11/05 10:04:06;;;;;;;11.73;5.60;;;;;;;8.46;89.91;100910.63;5034188;28;20167;-62
2022/11/05 10:06:32;;;;;;;11.95;6.57;;;;;;;8.48;90.31;100912.25;5032993;28;20021;-62
2022/11/05 10:09:24;;;;;;;15.15;7.20;;;;;;;8.38;92.20;100905.78;5032435;28;20497;-62
2022/11/05 10:11:59;;;;;;;13.18;5.53;;;;;;;8.20;93.32;100915.03;5034084;28;20032;-62
2022/11/05 10:14:36;;;;;;;14.00;6.90;;;;;;;8.09;94.62;100913.97;5034103;28;20022;-61
2022/11/05 10:17:23;;;;;;;13.90;7.35;;;;;;;8.09;96.43;100918.47;5033770;28;20038;-62
2022/11/05 10:20:09;;;;;;;15.88;7.22;;;;;;;8.02;97.22;100912.63;5034096;28;20032;-67
2022/11/05 10:22:36;;;;;;;15.02;7.40;;;;;;;8.02;99.29;100907.28;5033570;28;20457;-66
2022/11/05 10:25:14;;;;;;;0.15;0.15;;;;;;;7.93;100.00;100907.06;5033646;28;20037;-65
2022/11/05 10:27:51;;;;;;;0.30;0.30;;;;;;;7.95;100.00;100903.31;5033382;28;20476;-67
2022/11/05 10:30:16;;;;;;;0.43;0.43;;;;;;;7.84;100.00;100903.16;5032472;28;20029;-63
2022/11/05 10:32:43;;;;;;;0.15;0.03;;;;;;;7.83;100.00;100896.09;5033963;28;20029;-58
2022/11/05 10:35:17;;;;;;;0.20;0.20;;;;;;;7.79;100.00;100900.81;5032070;28;20033;-60
2022/11/05 10:37:46;;;;;;;0.10;0.10;;;;;;;7.80;100.00;100896.31;5032003;28;20025;-58
2022/11/05 10:40:50;;;;;;;0.65;0.45;;;;;;;7.77;100.00;100896.50;5033474;28;20454;-59
2022/11/05 10:43:29;;;;;;;0.95;0.50;;;;;;;7.76;100.00;100884.09;5033345;28;20029;-63
2022/11/05 10:46:36;;;;;;;0.00;0.00;;;;;;;7.72;100.00;100888.75;5033688;28;20060;-66
2022/11/05 10:49:34;;;;;;;0.08;0.08;;;;;;;7.72;100.00;100877.19;5033062;28;20045;-61
2022/11/05 10:52:11;;;;;;;0.05;0.05;;;;;;;7.73;100.00;100879.81;5023869;28;20052;-72
2022/11/05 10:54:37;;;;;;;0.28;0.28;;;;;;;7.76;100.00;100878.75;5033493;28;20029;-71
2022/11/05 10:57:31;;;;;;;18.27;11.02;;;;;;;7.74;100.00;100875.31;5033163;28;20025;-68
2022/11/05 11:00:21;;;;;;;15.55;8.95;;;;;;;7.78;100.00;100860.75;5034185;28;20061;-61
2022/11/05 11:02:54;;;;;;;16.55;9.60;;;;;;;7.85;100.00;100867.41;5027662;28;20037;-62
2022/11/05 11:05:23;;;;;;;15.52;8.85;;;;;;;7.84;100.00;100855.84;5031424;28;20029;-62
2022/11/05 11:08:11;;;;;;;14.60;9.52;;;;;;;7.80;100.00;100865.03;5032695;28;20040;-62
2022/11/05 11:10:47;;;;;;;19.67;9.82;;;;;;;7.80;100.00;100864.19;5027185;28;20124;-63
2022/11/05 11:13:21;;;;;;;15.45;8.38;;;;;;;7.78;100.00;100852.72;5031072;28;20026;-61
2022/11/05 11:15:49;;;;;;;14.50;8.38;;;;;;;7.80;100.00;100853.47;5032703;28;20029;-63
2022/11/05 11:18:30;;;;;;;15.68;7.03;;;;;;;7.74;100.00;100851.22;5032835;28;20374;-62
2022/11/05 11:21:16;;;;;;;14.50;8.35;;;;;;;7.68;100.00;100859.63;5032773;28;20478;-63
2022/11/05 11:23:51;;;;;;;16.05;8.15;;;;;;;7.75;100.00;100850.25;5032699;28;20037;-62
2022/11/05 11:26:17;;;;;;;12.90;5.65;;;;;;;7.78;100.00;100855.41;5031249;28;20386;-63
2022/11/05 11:28:47;;;;;;;17.60;8.45;;;;;;;7.72;100.00;100855.78;5032335;28;20029;-63
2022/11/05 11:31:16;;;;;;;19.08;9.38;;;;;;;7.80;100.00;100850.81;5032592;28;20037;-63
2022/11/05 11:33:46;;;;;;;17.67;8.45;;;;;;;7.80;100.00;100842.78;5031274;28;20083;-63
2022/11/05 11:36:16;;;;;;;21.10;9.15;;;;;;;7.80;100.00;100837.41;5030990;28;20493;-63
2022/11/05 11:38:42;;;;;;;15.63;9.27;;;;;;;7.74;100.00;100844.06;5030389;28;20421;-62
2022/11/05 11:41:25;;;;;;;16.48;9.20;;;;;;;7.81;100.00;100927.47;5031910;28;20033;-60
2022/11/05 11:44:32;;;;;;;15.82;9.20;;;;;;;7.99;100.00;100928.06;5064031;28;20022;-62
2022/11/05 11:47:03;;;;;;;20.17;9.23;;;;;;;28.58;100.00;101152.81;4990488;28;20663;-60
2022/11/05 11:49:32;;;;;;;12.40;7.68;;;;;;;30.50;90.96;101387.16;5026591;28;20137;-61
2022/11/05 11:52:03;;;;;;;15.13;8.02;;;;;;;29.22;99.62;100533.94;5032211;28;20079;-61
2022/11/05 11:54:31;;;;;;;6.97;3.08;;;;;;;30.38;100.00;100811.34;5031467;28;20025;-61
2022/11/05 11:56:56;;;;;;;6.65;3.25;;;;;;;28.54;100.00;100595.72;5031696;28;20048;-63
2022/11/05 11:59:25;;;;;;;8.00;3.50;;;;;;;27.55;100.00;100719.88;5029929;28;20026;-61
2022/11/05 12:02:34;;;;;;;4.78;2.50;;;;;;;28.93;100.00;100830.09;5031651;28;20507;-61
2022/11/05 12:05:17;;;;;;;5.30;2.47;;;;;;;29.27;100.00;100985.31;5031786;28;20025;-63
2022/11/05 12:07:48;;;;;;;5.40;2.00;;;;;;;29.20;100.00;100971.56;5029964;28;20095;-61
2022/11/05 12:10:33;;;;;;;3.33;1.70;;;;;;;28.53;100.00;100737.81;5031666;28;20037;-61
2022/11/05 12:13:10;;;;;;;2.47;1.83;;;;;;;28.61;100.00;100862.78;5031657;28;20037;-62
2022/11/05 12:16:05;;;;;;;2.80;1.17;;;;;;;30.70;100.00;101198.16;5031027;28;20075;-64
2022/11/05 12:19:02;;;;;;;0.30;0.30;;;;;;;33.21;100.00;100722.81;5025797;28;20045;-60
2022/11/05 12:21:30;;;;;;;0.10;0.10;;;;;;;31.18;100.00;100733.16;5031207;28;20034;-62
2022/11/05 12:24:26;;;;;;;0.00;0.00;;;;;;;31.92;100.00;100732.59;5030200;28;20060;-62
2022/11/05 12:27:21;;;;;;;0.00;0.00;;;;;;;31.97;100.00;100725.13;5031306;28;20029;-62